Time,TemperatureF,DewpointF,PressureIn,WindDirection,WindDirectionDegrees,WindSpeedMPH,WindSpeedGustMPH,Humidity,HourlyPrecipIn,Conditions,Clouds,dailyrainin,SoftwareType,DateUTC
2013-10-06 00:09:00,73.9,72.1,29.89,WSW,247,0.0,-999.0,94,-99.99,,,0.00,Acu-Link.com,2013-10-06 04:09:00,
2013-10-06 00:24:00,73.6,71.8,29.88,SSW,202,0.0,-999.0,94,-99.99,,,0.00,Acu-Link.com,2013-10-06 04:24:00,
2013-10-06 00:39:00,73.6,71.8,29.88,SSW,202,0.0,-999.0,94,-99.99,,,0.00,Acu-Link.com,2013-10-06 04:39:00,
2013-10-06 00:54:00,73.8,72.0,29.89,West,270,0.0,-999.0,94,-99.99,,,0.00,Acu-Link.com,2013-10-06 04:54:00,
2013-10-06 01:09:00,73.4,71.6,29.88,SSW,202,0.0,-999.0,94,-99.99,,,0.00,Acu-Link.com,2013-10-06 05:09:00,
2013-10-06 01:26:00,73.4,71.6,29.88,SSW,202,0.0,-999.0,94,-99.99,,,0.00,Acu-Link.com,2013-10-06 05:26:00,
2013-10-06 01:41:00,73.4,71.6,29.88,SSW,202,0.0,-999.0,94,-99.99,,,0.00,Acu-Link.com,2013-10-06 05:41:00,
2013-10-06 01:56:00,73.0,71.2,29.88,SSW,202,0.0,-999.0,94,-99.99,,,0.00,Acu-Link.com,2013-10-06 05:56:00,
2013-10-06 02:13:00,72.9,71.1,29.88,SSW,202,0.0,-999.0,94,-99.99,,,0.00,Acu-Link.com,2013-10-06 06:13:00,
2013-10-06 02:28:00,72.7,71.2,29.88,SSW,202,0.0,-999.0,95,-99.99,,,0.00,Acu-Link.com,2013-10-06 06:28:00,
2013-10-06 02:44:00,72.5,71.0,29.87,SSW,202,0.0,-999.0,95,-99.99,,,0.00,Acu-Link.com,2013-10-06 06:44:00,
2013-10-06 02:59:00,72.5,71.0,29.87,SSE,157,0.0,-999.0,95,-99.99,,,0.00,Acu-Link.com,2013-10-06 06:59:00,
2013-10-06 03:15:00,72.1,70.6,29.87,SE,135,0.0,-999.0,95,-99.99,,,0.00,Acu-Link.com,2013-10-06 07:15:00,
2013-10-06 03:30:00,71.8,70.3,29.86,SE,135,0.0,-999.0,95,-99.99,,,0.00,Acu-Link.com,2013-10-06 07:30:00,
2013-10-06 03:46:00,71.6,70.1,29.86,SE,135,0.0,-999.0,95,-99.99,,,0.00,Acu-Link.com,2013-10-06 07:46:00,
2013-10-06 04:02:00,71.4,70.2,29.85,SE,135,0.0,-999.0,96,-99.99,,,0.00,Acu-Link.com,2013-10-06 08:02:00,
2013-10-06 04:17:00,71.4,70.2,29.85,SSE,157,0.0,-999.0,96,-99.99,,,0.00,Acu-Link.com,2013-10-06 08:17:00,
2013-10-06 04:32:00,71.2,70.0,29.85,SSE,157,0.0,-999.0,96,-99.99,,,0.00,Acu-Link.com,2013-10-06 08:32:00,
2013-10-06 04:48:00,71.1,69.9,29.85,SSE,157,0.0,-999.0,96,-99.99,,,0.00,Acu-Link.com,2013-10-06 08:48:00,
2013-10-06 05:03:00,71.1,69.9,29.84,SSE,157,0.0,-999.0,96,-99.99,,,0.00,Acu-Link.com,2013-10-06 09:03:00,
2013-10-06 05:18:00,70.7,69.5,29.84,NE,45,0.0,-999.0,96,-99.99,,,0.00,Acu-Link.com,2013-10-06 09:18:00,
2013-10-06 05:33:00,70.2,69.0,29.84,NE,45,0.0,-999.0,96,-99.99,,,0.00,Acu-Link.com,2013-10-06 09:33:00,
2013-10-06 05:48:00,70.0,68.8,29.84,NE,45,0.0,-999.0,96,-99.99,,,0.00,Acu-Link.com,2013-10-06 09:48:00,
2013-10-06 06:04:00,69.3,68.4,29.85,NE,45,0.0,-999.0,97,-99.99,,,0.00,Acu-Link.com,2013-10-06 10:04:00,
2013-10-06 06:19:00,69.3,68.4,29.85,NE,45,0.0,-999.0,97,-99.99,,,0.00,Acu-Link.com,2013-10-06 10:19:00,
2013-10-06 06:34:00,69.3,68.4,29.85,NE,45,0.0,-999.0,97,-99.99,,,0.00,Acu-Link.com,2013-10-06 10:34:00,
2013-10-06 06:49:00,69.3,68.4,29.85,NE,45,0.0,-999.0,97,-99.99,,,0.00,Acu-Link.com,2013-10-06 10:49:00,
2013-10-06 07:04:00,69.3,68.7,29.85,NE,45,0.0,-999.0,98,-99.99,,,0.00,Acu-Link.com,2013-10-06 11:04:00,
2013-10-06 07:19:00,69.3,68.7,29.86,NE,45,0.0,-999.0,98,-99.99,,,0.00,Acu-Link.com,2013-10-06 11:19:00,
2013-10-06 07:34:00,69.3,68.7,29.86,NE,45,0.0,-999.0,98,-99.99,,,0.00,Acu-Link.com,2013-10-06 11:34:00,
2013-10-06 07:49:00,69.8,69.2,29.86,NE,45,0.0,-999.0,98,-99.99,,,0.00,Acu-Link.com,2013-10-06 11:49:00,
2013-10-06 08:04:00,70.7,70.1,29.86,NE,45,0.0,-999.0,98,-99.99,,,0.00,Acu-Link.com,2013-10-06 12:04:00,
2013-10-06 08:19:00,72.5,72.2,29.87,WSW,247,0.0,-999.0,99,-99.99,,,0.00,Acu-Link.com,2013-10-06 12:19:00,
2013-10-06 08:35:00,73.0,72.7,29.87,SE,135,0.0,-999.0,99,-99.99,,,0.00,Acu-Link.com,2013-10-06 12:35:00,
2013-10-06 08:50:00,74.7,72.9,29.88,SE,135,0.0,-999.0,94,-99.99,,,0.00,Acu-Link.com,2013-10-06 12:50:00,
2013-10-06 09:05:00,76.3,73.5,29.87,SE,135,0.0,-999.0,91,-99.99,,,0.00,Acu-Link.com,2013-10-06 13:05:00,
2013-10-06 09:20:00,77.2,73.4,29.87,SE,135,1.1,-999.0,88,-99.99,,,0.00,Acu-Link.com,2013-10-06 13:20:00,
2013-10-06 09:35:00,78.1,73.6,29.88,ESE,112,1.7,-999.0,86,-99.99,,,0.00,Acu-Link.com,2013-10-06 13:35:00,
2013-10-06 09:50:00,79.9,73.5,29.88,SSW,202,0.0,-999.0,81,-99.99,,,0.00,Acu-Link.com,2013-10-06 13:50:00,
2013-10-06 10:05:00,80.2,73.1,29.88,SSW,202,1.1,-999.0,79,-99.99,,,0.00,Acu-Link.com,2013-10-06 14:05:00,
2013-10-06 10:20:00,81.1,73.2,29.88,East,90,1.7,-999.0,77,-99.99,,,0.00,Acu-Link.com,2013-10-06 14:20:00,
2013-10-06 10:35:00,81.0,72.7,29.88,West,270,0.0,-999.0,76,-99.99,,,0.00,Acu-Link.com,2013-10-06 14:35:00,
2013-10-06 10:51:00,81.3,72.6,29.88,ESE,112,2.2,-999.0,75,-99.99,,,0.00,Acu-Link.com,2013-10-06 14:51:00,
2013-10-06 11:06:00,83.5,73.5,29.87,SE,135,1.7,-999.0,72,-99.99,,,0.00,Acu-Link.com,2013-10-06 15:06:00,
2013-10-06 11:21:00,81.7,72.6,29.87,South,180,1.1,-999.0,74,-99.99,,,0.00,Acu-Link.com,2013-10-06 15:21:00,
2013-10-06 11:36:00,82.0,72.1,29.88,SSW,202,2.2,-999.0,72,-99.99,,,0.00,Acu-Link.com,2013-10-06 15:36:00,
2013-10-06 11:51:00,83.5,71.8,29.88,SE,135,0.0,-999.0,68,-99.99,,,0.00,Acu-Link.com,2013-10-06 15:51:00,
2013-10-06 12:06:00,83.7,72.4,29.87,SE,135,2.2,-999.0,69,-99.99,,,0.00,Acu-Link.com,2013-10-06 16:06:00,
2013-10-06 12:21:00,84.0,72.3,29.87,SSE,157,0.0,-999.0,68,-99.99,,,0.00,Acu-Link.com,2013-10-06 16:21:00,
2013-10-06 12:36:00,84.2,72.5,29.87,WSW,247,1.7,-999.0,68,-99.99,,,0.00,Acu-Link.com,2013-10-06 16:36:00,
2013-10-06 12:51:00,84.0,72.3,29.88,South,180,2.2,-999.0,68,-99.99,,,0.00,Acu-Link.com,2013-10-06 16:51:00,
2013-10-06 13:07:00,82.8,72.0,29.86,ESE,112,0.0,-999.0,70,-99.99,,,0.00,Acu-Link.com,2013-10-06 17:07:00,
2013-10-06 13:22:00,82.6,72.2,29.85,SW,225,0.0,-999.0,71,-99.99,,,0.00,Acu-Link.com,2013-10-06 17:22:00,
2013-10-06 13:37:00,83.3,72.0,29.86,South,180,2.2,-999.0,69,-99.99,,,0.00,Acu-Link.com,2013-10-06 17:37:00,
2013-10-06 13:52:00,83.1,71.9,29.85,East,90,2.2,-999.0,69,-99.99,,,0.00,Acu-Link.com,2013-10-06 17:52:00,
2013-10-06 14:07:00,82.4,72.4,29.85,NE,45,1.7,-999.0,72,-99.99,,,0.00,Acu-Link.com,2013-10-06 18:07:00,
2013-10-06 14:22:00,82.0,72.1,29.85,South,180,2.2,-999.0,72,-99.99,,,0.00,Acu-Link.com,2013-10-06 18:22:00,
2013-10-06 14:37:00,81.9,72.0,29.84,ESE,112,2.2,-999.0,72,-99.99,,,0.00,Acu-Link.com,2013-10-06 18:37:00,
2013-10-06 14:52:00,82.4,72.0,29.84,SE,135,1.7,-999.0,71,-99.99,,,0.00,Acu-Link.com,2013-10-06 18:52:00,
2013-10-06 15:07:00,83.8,72.1,29.83,WNW,292,1.7,-999.0,68,-99.99,,,0.00,Acu-Link.com,2013-10-06 19:07:00,
2013-10-06 15:23:00,82.6,71.8,29.84,ESE,112,2.7,-999.0,70,-99.99,,,0.00,Acu-Link.com,2013-10-06 19:23:00,
2013-10-06 15:38:00,82.8,72.4,29.83,WSW,247,1.7,-999.0,71,-99.99,,,0.00,Acu-Link.com,2013-10-06 19:38:00,
2013-10-06 15:53:00,81.9,72.0,29.82,ESE,112,2.7,-999.0,72,-99.99,,,0.00,Acu-Link.com,2013-10-06 19:53:00,
2013-10-06 16:08:00,81.3,72.6,29.83,SSW,202,1.1,-999.0,75,-99.99,,,0.00,Acu-Link.com,2013-10-06 20:08:00,
2013-10-06 16:23:00,82.6,73.0,29.82,East,90,2.2,-999.0,73,-99.99,,,0.00,Acu-Link.com,2013-10-06 20:23:00,
2013-10-06 16:38:00,82.0,72.9,29.81,SW,225,2.7,-999.0,74,-99.99,,,0.00,Acu-Link.com,2013-10-06 20:38:00,
2013-10-06 16:53:00,81.9,73.2,29.82,SW,225,2.2,-999.0,75,-99.99,,,0.00,Acu-Link.com,2013-10-06 20:53:00,
2013-10-06 17:08:00,80.4,72.9,29.81,SW,225,2.2,-999.0,78,-99.99,,,0.00,Acu-Link.com,2013-10-06 21:08:00,
2013-10-06 17:23:00,80.6,73.5,29.82,South,180,2.2,-999.0,79,-99.99,,,0.00,Acu-Link.com,2013-10-06 21:23:00,
2013-10-06 17:39:00,80.6,73.5,29.81,SSE,157,0.0,-999.0,79,-99.99,,,0.00,Acu-Link.com,2013-10-06 21:39:00,
2013-10-06 17:54:00,80.1,73.4,29.80,ESE,112,2.2,-999.0,80,-99.99,,,0.00,Acu-Link.com,2013-10-06 21:54:00,
2013-10-06 18:09:00,79.0,73.0,29.80,SSW,202,0.0,-999.0,82,-99.99,,,0.00,Acu-Link.com,2013-10-06 22:09:00,
2013-10-06 18:24:00,78.4,73.2,29.81,SE,135,1.1,-999.0,84,-99.99,,,0.00,Acu-Link.com,2013-10-06 22:24:00,
2013-10-06 18:39:00,78.3,73.4,29.80,ESE,112,1.7,-999.0,85,-99.99,,,0.00,Acu-Link.com,2013-10-06 22:39:00,
2013-10-06 18:54:00,77.9,73.4,29.81,SSE,157,0.0,-999.0,86,-99.99,,,0.00,Acu-Link.com,2013-10-06 22:54:00,
2013-10-06 19:09:00,77.9,73.7,29.81,South,180,1.7,-999.0,87,-99.99,,,0.00,Acu-Link.com,2013-10-06 23:09:00,
2013-10-06 19:24:00,77.5,73.7,29.81,South,180,2.7,-999.0,88,-99.99,,,0.00,Acu-Link.com,2013-10-06 23:24:00,
2013-10-06 19:39:00,77.5,74.0,29.82,SE,135,0.0,-999.0,89,-99.99,,,0.00,Acu-Link.com,2013-10-06 23:39:00,
2013-10-06 19:54:00,77.4,74.2,29.81,SSE,157,0.0,-999.0,90,-99.99,,,0.00,Acu-Link.com,2013-10-06 23:54:00,
2013-10-06 20:10:00,77.4,74.2,29.81,SSE,157,0.0,-999.0,90,-99.99,,,0.00,Acu-Link.com,2013-10-07 00:10:00,
2013-10-06 20:25:00,77.4,74.2,29.81,SSE,157,1.1,-999.0,90,-99.99,,,0.00,Acu-Link.com,2013-10-07 00:25:00,
2013-10-06 20:40:00,77.5,74.3,29.81,SW,225,0.0,-999.0,90,-99.99,,,0.00,Acu-Link.com,2013-10-07 00:40:00,
2013-10-06 20:55:00,77.5,74.3,29.82,South,180,1.1,-999.0,90,-99.99,,,0.00,Acu-Link.com,2013-10-07 00:55:00,
2013-10-06 21:10:00,77.5,74.3,29.81,ESE,112,0.0,-999.0,90,-99.99,,,0.00,Acu-Link.com,2013-10-07 01:10:00,
2013-10-06 21:25:00,77.5,74.3,29.82,SSW,202,2.2,-999.0,90,-99.99,,,0.00,Acu-Link.com,2013-10-07 01:25:00,
2013-10-06 21:40:00,77.5,74.3,29.82,SSW,202,0.0,-999.0,90,-99.99,,,0.00,Acu-Link.com,2013-10-07 01:40:00,
2013-10-06 21:55:00,77.5,74.7,29.81,SW,225,2.2,-999.0,91,-99.99,,,0.00,Acu-Link.com,2013-10-07 01:55:00,
2013-10-06 22:10:00,77.5,75.0,29.81,SW,225,2.2,-999.0,92,-99.99,,,0.00,Acu-Link.com,2013-10-07 02:10:00,
2013-10-06 22:26:00,77.2,75.0,29.81,SSW,202,1.1,-999.0,93,-99.99,,,0.00,Acu-Link.com,2013-10-07 02:26:00,
2013-10-06 22:41:00,77.2,74.4,29.81,SW,225,0.0,-999.0,91,-99.99,,,0.00,Acu-Link.com,2013-10-07 02:41:00,
2013-10-06 22:56:00,77.0,74.2,29.81,SSE,157,2.7,-999.0,91,-99.99,,,0.00,Acu-Link.com,2013-10-07 02:56:00,
2013-10-06 23:11:00,77.0,74.2,29.80,SW,225,1.7,-999.0,91,-99.99,,,0.00,Acu-Link.com,2013-10-07 03:11:00,
2013-10-06 23:26:00,77.0,74.2,29.79,South,180,1.7,-999.0,91,-99.99,,,0.00,Acu-Link.com,2013-10-07 03:26:00,
2013-10-06 23:41:00,77.0,74.2,29.79,South,180,0.0,-999.0,91,-99.99,,,0.00,Acu-Link.com,2013-10-07 03:41:00,
2013-10-06 23:56:00,77.0,74.5,29.78,ENE,67,1.7,-999.0,92,-99.99,,,0.00,Acu-Link.com,2013-10-07 03:56:00,